sensor_id;sensor_type;location;lat;lon;timestamp;P1;durP1;ratioP1;P2;durP2;ratioP2
20456;SDS011;10387;51.102;6.848;2022-11-15T00:00:56;12.33;;;9.70;;
20456;SDS011;10387;51.102;6.848;2022-11-15T00:03:41;11.33;;;9.90;;
20456;SDS011;10387;51.102;6.848;2022-11-15T00:06:27;11.80;;;10.20;;
20456;SDS011;10387;51.102;6.848;2022-11-15T00:09:11;14.50;;;10.00;;
20456;SDS011;10387;51.102;6.848;2022-11-15T00:11:56;12.77;;;10.27;;
20456;SDS011;10387;51.102;6.848;2022-11-15T00:14:42;13.03;;;10.80;;
20456;SDS011;10387;51.102;6.848;2022-11-15T00:17:26;11.83;;;10.07;;
20456;SDS011;10387;51.102;6.848;2022-11-15T00:20:11;12.00;;;10.50;;
20456;SDS011;10387;51.102;6.848;2022-11-15T00:22:55;14.27;;;10.23;;
20456;SDS011;10387;51.102;6.848;2022-11-15T00:25:40;12.43;;;10.00;;
20456;SDS011;10387;51.102;6.848;2022-11-15T00:28:25;12.03;;;9.83;;
20456;SDS011;10387;51.102;6.848;2022-11-15T00:31:13;13.83;;;10.37;;
20456;SDS011;10387;51.102;6.848;2022-11-15T00:33:58;14.00;;;10.67;;
20456;SDS011;10387;51.102;6.848;2022-11-15T00:36:42;13.57;;;10.57;;
20456;SDS011;10387;51.102;6.848;2022-11-15T00:39:27;13.53;;;10.63;;
20456;SDS011;10387;51.102;6.848;2022-11-15T00:42:12;12.77;;;10.90;;
20456;SDS011;10387;51.102;6.848;2022-11-15T00:44:57;13.63;;;10.93;;
20456;SDS011;10387;51.102;6.848;2022-11-15T00:47:45;14.00;;;11.00;;
20456;SDS011;10387;51.102;6.848;2022-11-15T00:50:30;14.87;;;11.27;;
20456;SDS011;10387;51.102;6.848;2022-11-15T00:53:14;13.10;;;10.50;;
20456;SDS011;10387;51.102;6.848;2022-11-15T00:55:59;12.23;;;10.63;;
20456;SDS011;10387;51.102;6.848;2022-11-15T00:58:44;13.67;;;11.03;;
20456;SDS011;10387;51.102;6.848;2022-11-15T01:01:28;13.07;;;11.50;;
20456;SDS011;10387;51.102;6.848;2022-11-15T01:04:13;13.97;;;11.07;;
20456;SDS011;10387;51.102;6.848;2022-11-15T01:06:59;14.23;;;11.60;;
20456;SDS011;10387;51.102;6.848;2022-11-15T01:09:44;12.60;;;10.00;;
20456;SDS011;10387;51.102;6.848;2022-11-15T01:12:29;13.87;;;11.00;;
20456;SDS011;10387;51.102;6.848;2022-11-15T01:15:13;12.70;;;10.13;;
20456;SDS011;10387;51.102;6.848;2022-11-15T01:17:58;14.13;;;11.73;;
20456;SDS011;10387;51.102;6.848;2022-11-15T01:20:42;15.37;;;11.57;;
20456;SDS011;10387;51.102;6.848;2022-11-15T01:23:27;13.10;;;10.40;;
20456;SDS011;10387;51.102;6.848;2022-11-15T01:26:14;13.33;;;10.40;;
20456;SDS011;10387;51.102;6.848;2022-11-15T01:28:59;12.20;;;10.73;;
20456;SDS011;10387;51.102;6.848;2022-11-15T01:31:44;12.83;;;10.53;;
20456;SDS011;10387;51.102;6.848;2022-11-15T01:34:28;14.40;;;10.87;;
20456;SDS011;10387;51.102;6.848;2022-11-15T01:37:13;11.80;;;10.30;;
20456;SDS011;10387;51.102;6.848;2022-11-15T01:39:58;13.43;;;11.03;;
20456;SDS011;10387;51.102;6.848;2022-11-15T01:42:42;12.40;;;11.10;;
20456;SDS011;10387;51.102;6.848;2022-11-15T01:45:27;13.27;;;10.60;;
20456;SDS011;10387;51.102;6.848;2022-11-15T01:48:12;13.40;;;10.93;;
20456;SDS011;10387;51.102;6.848;2022-11-15T01:50:58;14.90;;;11.43;;
20456;SDS011;10387;51.102;6.848;2022-11-15T01:53:44;12.67;;;11.07;;
20456;SDS011;10387;51.102;6.848;2022-11-15T01:56:30;12.70;;;11.37;;
20456;SDS011;10387;51.102;6.848;2022-11-15T01:59:17;15.30;;;11.47;;
20456;SDS011;10387;51.102;6.848;2022-11-15T02:02:02;13.07;;;11.60;;
20456;SDS011;10387;51.102;6.848;2022-11-15T02:04:49;13.30;;;11.27;;
20456;SDS011;10387;51.102;6.848;2022-11-15T02:07:34;14.50;;;11.17;;
20456;SDS011;10387;51.102;6.848;2022-11-15T02:10:23;13.07;;;11.20;;
20456;SDS011;10387;51.102;6.848;2022-11-15T02:13:10;16.07;;;11.13;;
20456;SDS011;10387;51.102;6.848;2022-11-15T02:18:41;14.50;;;11.10;;
20456;SDS011;10387;51.102;6.848;2022-11-15T02:21:33;17.80;;;11.50;;
20456;SDS011;10387;51.102;6.848;2022-11-15T02:27:15;13.10;;;11.37;;
20456;SDS011;10387;51.102;6.848;2022-11-15T02:33:05;12.53;;;11.20;;
20456;SDS011;10387;51.102;6.848;2022-11-15T02:36:06;13.57;;;11.33;;
20456;SDS011;10387;51.102;6.848;2022-11-15T02:39:10;13.57;;;12.17;;
20456;SDS011;10387;51.102;6.848;2022-11-15T02:42:04;14.20;;;11.77;;
20456;SDS011;10387;51.102;6.848;2022-11-15T02:45:11;13.50;;;11.43;;
20456;SDS011;10387;51.102;6.848;2022-11-15T02:47:57;13.30;;;11.90;;
20456;SDS011;10387;51.102;6.848;2022-11-15T02:50:43;14.77;;;11.33;;
20456;SDS011;10387;51.102;6.848;2022-11-15T02:53:28;16.23;;;11.63;;
20456;SDS011;10387;51.102;6.848;2022-11-15T02:56:12;12.90;;;11.07;;
20456;SDS011;10387;51.102;6.848;2022-11-15T03:02:08;12.90;;;10.70;;
20456;SDS011;10387;51.102;6.848;2022-11-15T03:04:58;14.53;;;11.67;;
20456;SDS011;10387;51.102;6.848;2022-11-15T03:07:54;13.33;;;11.40;;
20456;SDS011;10387;51.102;6.848;2022-11-15T03:10:42;15.87;;;11.90;;
20456;SDS011;10387;51.102;6.848;2022-11-15T03:13:37;12.97;;;11.10;;
20456;SDS011;10387;51.102;6.848;2022-11-15T03:21:54;13.23;;;10.50;;
20456;SDS011;10387;51.102;6.848;2022-11-15T03:24:40;12.97;;;11.07;;
20456;SDS011;10387;51.102;6.848;2022-11-15T03:27:30;13.97;;;10.63;;
20456;SDS011;10387;51.102;6.848;2022-11-15T03:30:17;12.77;;;10.47;;
20456;SDS011;10387;51.102;6.848;2022-11-15T03:33:02;11.23;;;9.47;;
20456;SDS011;10387;51.102;6.848;2022-11-15T03:35:49;13.00;;;10.07;;
20456;SDS011;10387;51.102;6.848;2022-11-15T03:38:35;12.10;;;10.33;;
20456;SDS011;10387;51.102;6.848;2022-11-15T03:41:39;13.10;;;10.83;;
20456;SDS011;10387;51.102;6.848;2022-11-15T03:47:18;15.10;;;10.63;;
20456;SDS011;10387;51.102;6.848;2022-11-15T03:52:54;12.40;;;10.40;;
20456;SDS011;10387;51.102;6.848;2022-11-15T03:55:42;12.33;;;10.33;;
20456;SDS011;10387;51.102;6.848;2022-11-15T03:58:27;11.00;;;9.90;;
20456;SDS011;10387;51.102;6.848;2022-11-15T04:01:11;11.57;;;10.23;;
20456;SDS011;10387;51.102;6.848;2022-11-15T04:03:56;12.23;;;10.37;;
20456;SDS011;10387;51.102;6.848;2022-11-15T04:06:40;11.73;;;10.43;;
20456;SDS011;10387;51.102;6.848;2022-11-15T04:09:25;14.27;;;10.60;;
20456;SDS011;10387;51.102;6.848;2022-11-15T04:12:17;11.70;;;9.87;;
20456;SDS011;10387;51.102;6.848;2022-11-15T04:15:15;10.97;;;9.80;;
20456;SDS011;10387;51.102;6.848;2022-11-15T04:18:00;12.27;;;10.00;;
20456;SDS011;10387;51.102;6.848;2022-11-15T04:20:46;12.73;;;10.23;;
20456;SDS011;10387;51.102;6.848;2022-11-15T04:23:50;10.10;;;9.10;;
20456;SDS011;10387;51.102;6.848;2022-11-15T04:26:54;11.30;;;10.17;;
20456;SDS011;10387;51.102;6.848;2022-11-15T04:29:39;10.87;;;9.77;;
20456;SDS011;10387;51.102;6.848;2022-11-15T04:32:23;12.17;;;10.13;;
20456;SDS011;10387;51.102;6.848;2022-11-15T04:35:09;11.70;;;9.90;;
20456;SDS011;10387;51.102;6.848;2022-11-15T04:37:54;12.03;;;10.43;;
20456;SDS011;10387;51.102;6.848;2022-11-15T04:40:38;10.87;;;9.70;;
20456;SDS011;10387;51.102;6.848;2022-11-15T04:43:23;11.80;;;9.97;;
20456;SDS011;10387;51.102;6.848;2022-11-15T04:46:07;11.23;;;9.13;;
20456;SDS011;10387;51.102;6.848;2022-11-15T04:48:52;12.27;;;10.07;;
20456;SDS011;10387;51.102;6.848;2022-11-15T04:51:37;12.87;;;10.37;;
20456;SDS011;10387;51.102;6.848;2022-11-15T04:54:23;10.93;;;9.53;;
20456;SDS011;10387;51.102;6.848;2022-11-15T04:57:07;11.60;;;10.03;;
20456;SDS011;10387;51.102;6.848;2022-11-15T04:59:52;12.50;;;10.40;;
20456;SDS011;10387;51.102;6.848;2022-11-15T05:02:36;12.90;;;9.53;;
20456;SDS011;10387;51.102;6.848;2022-11-15T05:05:40;10.00;;;9.00;;
20456;SDS011;10387;51.102;6.848;2022-11-15T05:08:25;10.40;;;9.30;;
20456;SDS011;10387;51.102;6.848;2022-11-15T05:11:10;11.43;;;9.40;;
20456;SDS011;10387;51.102;6.848;2022-11-15T05:13:54;9.70;;;8.70;;
20456;SDS011;10387;51.102;6.848;2022-11-15T05:16:39;10.50;;;9.33;;
20456;SDS011;10387;51.102;6.848;2022-11-15T05:19:26;10.33;;;9.07;;
20456;SDS011;10387;51.102;6.848;2022-11-15T05:22:10;11.13;;;8.60;;
20456;SDS011;10387;51.102;6.848;2022-11-15T05:24:55;9.03;;;7.90;;
20456;SDS011;10387;51.102;6.848;2022-11-15T05:27:41;11.70;;;9.37;;
20456;SDS011;10387;51.102;6.848;2022-11-15T05:33:15;9.90;;;8.87;;
20456;SDS011;10387;51.102;6.848;2022-11-15T05:36:12;12.07;;;9.43;;
20456;SDS011;10387;51.102;6.848;2022-11-15T05:39:00;9.10;;;7.67;;
20456;SDS011;10387;51.102;6.848;2022-11-15T05:41:49;10.43;;;8.87;;
20456;SDS011;10387;51.102;6.848;2022-11-15T05:44:43;9.83;;;8.80;;
20456;SDS011;10387;51.102;6.848;2022-11-15T05:47:40;8.77;;;7.97;;
20456;SDS011;10387;51.102;6.848;2022-11-15T05:50:28;8.50;;;7.63;;
20456;SDS011;10387;51.102;6.848;2022-11-15T05:53:15;8.90;;;7.97;;
20456;SDS011;10387;51.102;6.848;2022-11-15T05:56:01;8.57;;;7.63;;
20456;SDS011;10387;51.102;6.848;2022-11-15T05:58:46;8.10;;;7.23;;
20456;SDS011;10387;51.102;6.848;2022-11-15T06:01:33;7.70;;;7.00;;
20456;SDS011;10387;51.102;6.848;2022-11-15T06:04:20;7.70;;;6.87;;
20456;SDS011;10387;51.102;6.848;2022-11-15T06:07:13;7.20;;;6.47;;
20456;SDS011;10387;51.102;6.848;2022-11-15T06:10:08;6.90;;;6.30;;
20456;SDS011;10387;51.102;6.848;2022-11-15T06:13:11;8.40;;;6.50;;
20456;SDS011;10387;51.102;6.848;2022-11-15T06:19:38;7.20;;;6.50;;
20456;SDS011;10387;51.102;6.848;2022-11-15T06:22:36;7.70;;;7.00;;
20456;SDS011;10387;51.102;6.848;2022-11-15T06:25:31;7.97;;;7.00;;
20456;SDS011;10387;51.102;6.848;2022-11-15T06:28:22;7.73;;;6.93;;
20456;SDS011;10387;51.102;6.848;2022-11-15T06:31:17;8.90;;;6.77;;
20456;SDS011;10387;51.102;6.848;2022-11-15T06:34:05;7.60;;;6.80;;
20456;SDS011;10387;51.102;6.848;2022-11-15T06:36:52;6.93;;;6.23;;
20456;SDS011;10387;51.102;6.848;2022-11-15T06:39:43;7.23;;;6.50;;
20456;SDS011;10387;51.102;6.848;2022-11-15T06:42:31;7.73;;;6.97;;
20456;SDS011;10387;51.102;6.848;2022-11-15T06:45:19;8.27;;;7.47;;
20456;SDS011;10387;51.102;6.848;2022-11-15T06:48:16;9.33;;;6.97;;
20456;SDS011;10387;51.102;6.848;2022-11-15T06:58:22;6.83;;;6.00;;
20456;SDS011;10387;51.102;6.848;2022-11-15T07:01:22;6.00;;;5.47;;
20456;SDS011;10387;51.102;6.848;2022-11-15T07:04:06;6.73;;;5.73;;
20456;SDS011;10387;51.102;6.848;2022-11-15T07:06:54;6.00;;;5.40;;
20456;SDS011;10387;51.102;6.848;2022-11-15T07:09:39;5.90;;;5.27;;
20456;SDS011;10387;51.102;6.848;2022-11-15T07:12:27;6.13;;;5.53;;
20456;SDS011;10387;51.102;6.848;2022-11-15T07:15:14;6.07;;;5.30;;
20456;SDS011;10387;51.102;6.848;2022-11-15T07:18:02;6.83;;;5.20;;
20456;SDS011;10387;51.102;6.848;2022-11-15T07:20:50;5.90;;;5.17;;
20456;SDS011;10387;51.102;6.848;2022-11-15T07:23:38;6.07;;;5.47;;
20456;SDS011;10387;51.102;6.848;2022-11-15T07:26:26;6.47;;;5.13;;
20456;SDS011;10387;51.102;6.848;2022-11-15T07:29:12;6.60;;;5.47;;
20456;SDS011;10387;51.102;6.848;2022-11-15T07:32:00;5.97;;;4.90;;
20456;SDS011;10387;51.102;6.848;2022-11-15T07:34:44;6.00;;;5.23;;
20456;SDS011;10387;51.102;6.848;2022-11-15T07:37:30;5.33;;;4.77;;
20456;SDS011;10387;51.102;6.848;2022-11-15T07:40:14;7.63;;;5.43;;
20456;SDS011;10387;51.102;6.848;2022-11-15T07:43:05;6.23;;;5.20;;
20456;SDS011;10387;51.102;6.848;2022-11-15T07:46:03;5.40;;;4.90;;
20456;SDS011;10387;51.102;6.848;2022-11-15T07:48:56;5.80;;;4.87;;
20456;SDS011;10387;51.102;6.848;2022-11-15T07:51:44;4.83;;;4.20;;
20456;SDS011;10387;51.102;6.848;2022-11-15T07:54:37;5.70;;;4.13;;
20456;SDS011;10387;51.102;6.848;2022-11-15T07:57:22;4.87;;;4.33;;
20456;SDS011;10387;51.102;6.848;2022-11-15T08:00:10;4.53;;;4.07;;
20456;SDS011;10387;51.102;6.848;2022-11-15T08:03:05;4.17;;;3.77;;
20456;SDS011;10387;51.102;6.848;2022-11-15T08:05:51;4.60;;;3.87;;
20456;SDS011;10387;51.102;6.848;2022-11-15T08:08:46;4.37;;;3.97;;
20456;SDS011;10387;51.102;6.848;2022-11-15T08:11:34;4.73;;;4.23;;
20456;SDS011;10387;51.102;6.848;2022-11-15T08:14:21;5.13;;;4.50;;
20456;SDS011;10387;51.102;6.848;2022-11-15T08:17:07;6.40;;;4.67;;
20456;SDS011;10387;51.102;6.848;2022-11-15T08:19:54;5.50;;;4.87;;
20456;SDS011;10387;51.102;6.848;2022-11-15T08:22:39;5.20;;;4.37;;
20456;SDS011;10387;51.102;6.848;2022-11-15T08:25:28;5.03;;;4.37;;
20456;SDS011;10387;51.102;6.848;2022-11-15T08:28:19;3.90;;;3.23;;
20456;SDS011;10387;51.102;6.848;2022-11-15T08:31:19;4.20;;;3.70;;
20456;SDS011;10387;51.102;6.848;2022-11-15T08:34:05;3.93;;;3.13;;
20456;SDS011;10387;51.102;6.848;2022-11-15T09:11:27;4.70;;;3.00;;
20456;SDS011;10387;51.102;6.848;2022-11-15T09:14:15;3.43;;;2.60;;
20456;SDS011;10387;51.102;6.848;2022-11-15T09:17:00;5.23;;;2.37;;
20456;SDS011;10387;51.102;6.848;2022-11-15T09:19:45;3.37;;;2.80;;
20456;SDS011;10387;51.102;6.848;2022-11-15T09:22:30;1.90;;;1.77;;
20456;SDS011;10387;51.102;6.848;2022-11-15T09:25:15;2.87;;;2.00;;
20456;SDS011;10387;51.102;6.848;2022-11-15T09:27:59;3.30;;;2.10;;
20456;SDS011;10387;51.102;6.848;2022-11-15T09:30:44;2.90;;;2.37;;
20456;SDS011;10387;51.102;6.848;2022-11-15T09:33:33;2.00;;;1.77;;
20456;SDS011;10387;51.102;6.848;2022-11-15T09:36:18;3.20;;;2.20;;
20456;SDS011;10387;51.102;6.848;2022-11-15T09:39:03;4.43;;;1.97;;
20456;SDS011;10387;51.102;6.848;2022-11-15T09:41:50;2.67;;;2.00;;
20456;SDS011;10387;51.102;6.848;2022-11-15T09:50:20;1.83;;;1.73;;
20456;SDS011;10387;51.102;6.848;2022-11-15T09:52:53;2.43;;;1.70;;
20456;SDS011;10387;51.102;6.848;2022-11-15T09:55:20;3.17;;;2.03;;
20456;SDS011;10387;51.102;6.848;2022-11-15T09:58:00;1.60;;;1.50;;
20456;SDS011;10387;51.102;6.848;2022-11-15T10:00:38;1.87;;;1.47;;
20456;SDS011;10387;51.102;6.848;2022-11-15T10:03:16;3.17;;;1.90;;
20456;SDS011;10387;51.102;6.848;2022-11-15T10:05:47;1.87;;;1.70;;
20456;SDS011;10387;51.102;6.848;2022-11-15T10:08:20;2.00;;;1.80;;
20456;SDS011;10387;51.102;6.848;2022-11-15T10:10:55;2.83;;;1.60;;
20456;SDS011;10387;51.102;6.848;2022-11-15T10:13:26;2.00;;;1.50;;
20456;SDS011;10387;51.102;6.848;2022-11-15T10:15:59;1.67;;;1.40;;
20456;SDS011;10387;51.102;6.848;2022-11-15T10:20:59;3.37;;;1.90;;
20456;SDS011;10387;51.102;6.848;2022-11-15T10:23:25;2.10;;;1.60;;
20456;SDS011;10387;51.102;6.848;2022-11-15T10:25:53;1.87;;;1.60;;
20456;SDS011;10387;51.102;6.848;2022-11-15T10:28:27;2.07;;;1.30;;
20456;SDS011;10387;51.102;6.848;2022-11-15T10:30:54;2.33;;;1.60;;
20456;SDS011;10387;51.102;6.848;2022-11-15T10:33:31;3.30;;;1.60;;
20456;SDS011;10387;51.102;6.848;2022-11-15T10:44:41;3.83;;;1.20;;
20456;SDS011;10387;51.102;6.848;2022-11-15T10:46:39;2.07;;;1.57;;
20456;SDS011;10387;51.102;6.848;2022-11-15T10:52:02;3.13;;;1.30;;
20456;SDS011;10387;51.102;6.848;2022-11-15T10:54:36;2.27;;;1.07;;
20456;SDS011;10387;51.102;6.848;2022-11-15T10:57:48;2.60;;;0.90;;
20456;SDS011;10387;51.102;6.848;2022-11-15T10:59:56;1.10;;;1.00;;
20456;SDS011;10387;51.102;6.848;2022-11-15T11:02:39;2.40;;;0.97;;
20456;SDS011;10387;51.102;6.848;2022-11-15T11:07:56;1.17;;;0.90;;
20456;SDS011;10387;51.102;6.848;2022-11-15T11:10:23;1.93;;;1.27;;
20456;SDS011;10387;51.102;6.848;2022-11-15T11:12:49;2.67;;;1.30;;
20456;SDS011;10387;51.102;6.848;2022-11-15T11:15:15;2.73;;;1.30;;
20456;SDS011;10387;51.102;6.848;2022-11-15T11:23:20;2.00;;;1.00;;
20456;SDS011;10387;51.102;6.848;2022-11-15T11:25:54;3.33;;;1.30;;
20456;SDS011;10387;51.102;6.848;2022-11-15T11:33:33;2.20;;;1.10;;
20456;SDS011;10387;51.102;6.848;2022-11-15T11:38:49;3.37;;;1.10;;
20456;SDS011;10387;51.102;6.848;2022-11-15T11:41:23;1.47;;;1.07;;
20456;SDS011;10387;51.102;6.848;2022-11-15T11:43:58;2.07;;;1.00;;
20456;SDS011;10387;51.102;6.848;2022-11-15T11:49:15;1.63;;;1.07;;
20456;SDS011;10387;51.102;6.848;2022-11-15T11:51:47;1.23;;;1.10;;
20456;SDS011;10387;51.102;6.848;2022-11-15T11:56:51;1.90;;;1.17;;
20456;SDS011;10387;51.102;6.848;2022-11-15T11:59:39;3.43;;;1.30;;
20456;SDS011;10387;51.102;6.848;2022-11-15T12:04:44;3.17;;;1.30;;
20456;SDS011;10387;51.102;6.848;2022-11-15T12:07:17;3.93;;;1.37;;
20456;SDS011;10387;51.102;6.848;2022-11-15T12:09:53;4.43;;;1.20;;
20456;SDS011;10387;51.102;6.848;2022-11-15T12:15:20;1.83;;;1.20;;
20456;SDS011;10387;51.102;6.848;2022-11-15T12:17:43;4.30;;;1.20;;
20456;SDS011;10387;51.102;6.848;2022-11-15T12:20:20;1.40;;;1.10;;
20456;SDS011;10387;51.102;6.848;2022-11-15T12:22:57;1.93;;;1.27;;
20456;SDS011;10387;51.102;6.848;2022-11-15T12:27:59;2.13;;;1.40;;
20456;SDS011;10387;51.102;6.848;2022-11-15T12:30:30;2.10;;;1.00;;
20456;SDS011;10387;51.102;6.848;2022-11-15T12:33:02;2.10;;;1.23;;
20456;SDS011;10387;51.102;6.848;2022-11-15T12:35:42;2.37;;;1.20;;
20456;SDS011;10387;51.102;6.848;2022-11-15T12:38:11;1.53;;;1.20;;
20456;SDS011;10387;51.102;6.848;2022-11-15T12:40:39;2.80;;;1.00;;
20456;SDS011;10387;51.102;6.848;2022-11-15T12:56:32;2.57;;;1.07;;
20456;SDS011;10387;51.102;6.848;2022-11-15T13:24:49;2.33;;;1.20;;
20456;SDS011;10387;51.102;6.848;2022-11-15T13:27:15;4.07;;;1.10;;
20456;SDS011;10387;51.102;6.848;2022-11-15T13:29:44;1.37;;;1.03;;
20456;SDS011;10387;51.102;6.848;2022-11-15T13:32:11;1.77;;;1.10;;
20456;SDS011;10387;51.102;6.848;2022-11-15T13:34:38;3.10;;;1.50;;
20456;SDS011;10387;51.102;6.848;2022-11-15T13:39:47;2.73;;;1.37;;
20456;SDS011;10387;51.102;6.848;2022-11-15T13:42:18;4.70;;;1.60;;
20456;SDS011;10387;51.102;6.848;2022-11-15T13:45:12;2.50;;;1.20;;
20456;SDS011;10387;51.102;6.848;2022-11-15T13:47:31;2.37;;;1.60;;
20456;SDS011;10387;51.102;6.848;2022-11-15T13:49:57;1.43;;;1.30;;
20456;SDS011;10387;51.102;6.848;2022-11-15T13:52:28;2.40;;;1.50;;
20456;SDS011;10387;51.102;6.848;2022-11-15T14:00:38;2.20;;;1.80;;
20456;SDS011;10387;51.102;6.848;2022-11-15T14:03:52;2.57;;;1.73;;
20456;SDS011;10387;51.102;6.848;2022-11-15T14:08:59;3.53;;;1.83;;
20456;SDS011;10387;51.102;6.848;2022-11-15T14:11:30;5.50;;;2.23;;
20456;SDS011;10387;51.102;6.848;2022-11-15T14:16:43;2.57;;;2.30;;
20456;SDS011;10387;51.102;6.848;2022-11-15T14:24:31;4.23;;;2.50;;
20456;SDS011;10387;51.102;6.848;2022-11-15T14:26:57;3.77;;;2.57;;
20456;SDS011;10387;51.102;6.848;2022-11-15T14:29:41;3.27;;;2.30;;
20456;SDS011;10387;51.102;6.848;2022-11-15T14:32:13;3.37;;;2.70;;
20456;SDS011;10387;51.102;6.848;2022-11-15T14:34:40;3.10;;;2.80;;
20456;SDS011;10387;51.102;6.848;2022-11-15T14:37:18;5.13;;;3.10;;
20456;SDS011;10387;51.102;6.848;2022-11-15T14:39:45;4.37;;;2.90;;
20456;SDS011;10387;51.102;6.848;2022-11-15T14:42:11;4.40;;;3.10;;
20456;SDS011;10387;51.102;6.848;2022-11-15T14:44:37;5.70;;;3.17;;
20456;SDS011;10387;51.102;6.848;2022-11-15T14:47:03;4.57;;;3.10;;
20456;SDS011;10387;51.102;6.848;2022-11-15T14:49:30;3.57;;;2.90;;
20456;SDS011;10387;51.102;6.848;2022-11-15T14:51:58;3.67;;;2.83;;
20456;SDS011;10387;51.102;6.848;2022-11-15T14:54:27;5.17;;;3.17;;
20456;SDS011;10387;51.102;6.848;2022-11-15T14:57:01;3.80;;;2.67;;
20456;SDS011;10387;51.102;6.848;2022-11-15T14:59:28;3.23;;;2.93;;
20456;SDS011;10387;51.102;6.848;2022-11-15T15:01:54;4.53;;;2.50;;
20456;SDS011;10387;51.102;6.848;2022-11-15T15:04:21;3.37;;;2.50;;
20456;SDS011;10387;51.102;6.848;2022-11-15T15:06:47;3.67;;;2.83;;
20456;SDS011;10387;51.102;6.848;2022-11-15T15:09:13;2.93;;;2.60;;
20456;SDS011;10387;51.102;6.848;2022-11-15T15:11:41;4.80;;;2.77;;
20456;SDS011;10387;51.102;6.848;2022-11-15T15:14:07;2.80;;;2.60;;
20456;SDS011;10387;51.102;6.848;2022-11-15T15:16:34;3.60;;;2.77;;
20456;SDS011;10387;51.102;6.848;2022-11-15T15:19:00;3.23;;;2.77;;
20456;SDS011;10387;51.102;6.848;2022-11-15T15:21:27;5.70;;;2.60;;
20456;SDS011;10387;51.102;6.848;2022-11-15T15:23:58;4.10;;;2.80;;
20456;SDS011;10387;51.102;6.848;2022-11-15T15:26:26;3.40;;;3.10;;
20456;SDS011;10387;51.102;6.848;2022-11-15T15:28:52;3.97;;;3.57;;
20456;SDS011;10387;51.102;6.848;2022-11-15T15:31:18;3.23;;;2.67;;
20456;SDS011;10387;51.102;6.848;2022-11-15T15:33:44;3.03;;;2.73;;
20456;SDS011;10387;51.102;6.848;2022-11-15T15:36:12;4.53;;;3.23;;
20456;SDS011;10387;51.102;6.848;2022-11-15T15:38:39;3.53;;;3.23;;
20456;SDS011;10387;51.102;6.848;2022-11-15T15:41:16;4.73;;;2.77;;
20456;SDS011;10387;51.102;6.848;2022-11-15T15:43:52;3.07;;;2.77;;
20456;SDS011;10387;51.102;6.848;2022-11-15T15:46:19;4.07;;;2.60;;
20456;SDS011;10387;51.102;6.848;2022-11-15T15:48:51;3.90;;;2.80;;
20456;SDS011;10387;51.102;6.848;2022-11-15T15:51:20;3.20;;;2.90;;
20456;SDS011;10387;51.102;6.848;2022-11-15T15:53:47;3.30;;;2.70;;
20456;SDS011;10387;51.102;6.848;2022-11-15T15:56:13;4.47;;;3.03;;
20456;SDS011;10387;51.102;6.848;2022-11-15T15:58:39;3.03;;;2.60;;
20456;SDS011;10387;51.102;6.848;2022-11-15T16:01:05;3.67;;;3.37;;
20456;SDS011;10387;51.102;6.848;2022-11-15T16:03:32;2.97;;;2.60;;
20456;SDS011;10387;51.102;6.848;2022-11-15T16:06:02;2.80;;;2.50;;
20456;SDS011;10387;51.102;6.848;2022-11-15T16:08:30;3.97;;;2.30;;
20456;SDS011;10387;51.102;6.848;2022-11-15T16:10:56;3.07;;;2.50;;
20456;SDS011;10387;51.102;6.848;2022-11-15T16:13:22;3.13;;;2.57;;
20456;SDS011;10387;51.102;6.848;2022-11-15T16:15:58;3.43;;;2.43;;
20456;SDS011;10387;51.102;6.848;2022-11-15T16:18:32;3.00;;;2.50;;
20456;SDS011;10387;51.102;6.848;2022-11-15T16:20:59;3.33;;;3.03;;
20456;SDS011;10387;51.102;6.848;2022-11-15T16:23:27;3.60;;;2.50;;
20456;SDS011;10387;51.102;6.848;2022-11-15T16:25:54;3.53;;;2.60;;
20456;SDS011;10387;51.102;6.848;2022-11-15T16:28:22;4.63;;;2.50;;
20456;SDS011;10387;51.102;6.848;2022-11-15T16:30:59;3.37;;;2.60;;
20456;SDS011;10387;51.102;6.848;2022-11-15T16:33:26;2.93;;;2.60;;
20456;SDS011;10387;51.102;6.848;2022-11-15T16:35:53;2.57;;;2.37;;
20456;SDS011;10387;51.102;6.848;2022-11-15T16:38:19;3.03;;;2.47;;
20456;SDS011;10387;51.102;6.848;2022-11-15T16:40:45;2.53;;;2.30;;
20456;SDS011;10387;51.102;6.848;2022-11-15T16:43:12;2.77;;;2.47;;
20456;SDS011;10387;51.102;6.848;2022-11-15T16:45:38;2.60;;;2.40;;
20456;SDS011;10387;51.102;6.848;2022-11-15T16:48:05;3.00;;;2.70;;
20456;SDS011;10387;51.102;6.848;2022-11-15T16:50:33;3.47;;;2.93;;
20456;SDS011;10387;51.102;6.848;2022-11-15T16:53:05;3.63;;;2.93;;
20456;SDS011;10387;51.102;6.848;2022-11-15T16:55:31;3.17;;;2.57;;
20456;SDS011;10387;51.102;6.848;2022-11-15T16:57:57;3.37;;;2.60;;
20456;SDS011;10387;51.102;6.848;2022-11-15T17:00:23;2.77;;;2.57;;
20456;SDS011;10387;51.102;6.848;2022-11-15T17:02:50;2.93;;;2.73;;
20456;SDS011;10387;51.102;6.848;2022-11-15T17:05:17;4.60;;;2.40;;
20456;SDS011;10387;51.102;6.848;2022-11-15T17:07:45;3.53;;;2.73;;
20456;SDS011;10387;51.102;6.848;2022-11-15T17:10:12;3.10;;;2.77;;
20456;SDS011;10387;51.102;6.848;2022-11-15T17:12:39;3.00;;;2.70;;
20456;SDS011;10387;51.102;6.848;2022-11-15T17:15:05;2.80;;;2.60;;
20456;SDS011;10387;51.102;6.848;2022-11-15T17:17:31;4.60;;;3.20;;
20456;SDS011;10387;51.102;6.848;2022-11-15T17:19:57;5.03;;;3.13;;
20456;SDS011;10387;51.102;6.848;2022-11-15T17:22:24;4.47;;;2.90;;
20456;SDS011;10387;51.102;6.848;2022-11-15T17:24:50;3.17;;;2.70;;
20456;SDS011;10387;51.102;6.848;2022-11-15T17:27:16;3.13;;;2.57;;
20456;SDS011;10387;51.102;6.848;2022-11-15T17:29:42;4.37;;;2.83;;
20456;SDS011;10387;51.102;6.848;2022-11-15T17:32:08;3.30;;;2.43;;
20456;SDS011;10387;51.102;6.848;2022-11-15T17:34:35;2.80;;;2.30;;
20456;SDS011;10387;51.102;6.848;2022-11-15T17:37:01;3.63;;;2.67;;
20456;SDS011;10387;51.102;6.848;2022-11-15T17:39:28;3.33;;;2.37;;
20456;SDS011;10387;51.102;6.848;2022-11-15T17:41:54;2.97;;;2.67;;
20456;SDS011;10387;51.102;6.848;2022-11-15T17:44:20;3.20;;;2.70;;
20456;SDS011;10387;51.102;6.848;2022-11-15T17:46:46;3.30;;;2.57;;
20456;SDS011;10387;51.102;6.848;2022-11-15T17:49:12;3.77;;;2.80;;
20456;SDS011;10387;51.102;6.848;2022-11-15T17:51:38;4.90;;;2.90;;
20456;SDS011;10387;51.102;6.848;2022-11-15T17:54:04;3.37;;;3.07;;
20456;SDS011;10387;51.102;6.848;2022-11-15T17:56:30;5.13;;;3.13;;
20456;SDS011;10387;51.102;6.848;2022-11-15T17:58:57;4.00;;;3.10;;
20456;SDS011;10387;51.102;6.848;2022-11-15T18:01:30;4.97;;;3.50;;
20456;SDS011;10387;51.102;6.848;2022-11-15T18:03:57;4.23;;;3.83;;
20456;SDS011;10387;51.102;6.848;2022-11-15T18:06:25;3.60;;;3.30;;
20456;SDS011;10387;51.102;6.848;2022-11-15T18:08:52;5.40;;;4.27;;
20456;SDS011;10387;51.102;6.848;2022-11-15T18:11:23;4.10;;;3.70;;
20456;SDS011;10387;51.102;6.848;2022-11-15T18:13:50;4.47;;;3.73;;
20456;SDS011;10387;51.102;6.848;2022-11-15T18:16:17;3.50;;;3.20;;
20456;SDS011;10387;51.102;6.848;2022-11-15T18:18:44;4.27;;;3.83;;
20456;SDS011;10387;51.102;6.848;2022-11-15T18:21:15;4.80;;;4.30;;
20456;SDS011;10387;51.102;6.848;2022-11-15T18:23:43;4.30;;;3.87;;
20456;SDS011;10387;51.102;6.848;2022-11-15T18:26:10;5.10;;;3.57;;
20456;SDS011;10387;51.102;6.848;2022-11-15T18:28:38;4.40;;;4.00;;
20456;SDS011;10387;51.102;6.848;2022-11-15T18:31:11;4.17;;;3.60;;
20456;SDS011;10387;51.102;6.848;2022-11-15T18:33:38;4.10;;;3.70;;
20456;SDS011;10387;51.102;6.848;2022-11-15T18:36:05;6.17;;;4.90;;
20456;SDS011;10387;51.102;6.848;2022-11-15T18:38:32;4.27;;;3.90;;
20456;SDS011;10387;51.102;6.848;2022-11-15T18:43:35;5.20;;;4.70;;
20456;SDS011;10387;51.102;6.848;2022-11-15T18:46:04;6.00;;;5.40;;
20456;SDS011;10387;51.102;6.848;2022-11-15T18:48:32;5.87;;;5.20;;
20456;SDS011;10387;51.102;6.848;2022-11-15T18:51:08;6.13;;;5.50;;